createdAt,value
2018-11-14T00:01:18.051Z,28.27
2018-11-14T00:03:49.542Z,28.10
2018-11-14T00:06:20.846Z,28.07
2018-11-14T00:08:51.995Z,28.47
2018-11-14T00:11:23.005Z,28.70
2018-11-14T00:13:54.028Z,29.53
2018-11-14T00:16:25.220Z,29.87
2018-11-14T00:18:56.323Z,30.20
2018-11-14T00:21:27.387Z,30.80
2018-11-14T00:23:58.369Z,30.70
2018-11-14T00:26:29.619Z,32.00
2018-11-14T00:29:00.952Z,31.13
2018-11-14T00:31:32.170Z,30.87
2018-11-14T00:34:03.215Z,29.67
2018-11-14T00:36:34.520Z,29.97
2018-11-14T00:39:07.508Z,28.93
2018-11-14T00:41:38.807Z,29.60
2018-11-14T00:44:10.176Z,29.10
2018-11-14T00:46:41.520Z,29.10
2018-11-14T00:49:12.899Z,28.27
2018-11-14T00:51:44.041Z,28.47
2018-11-14T00:54:15.738Z,26.43
2018-11-14T00:56:47.509Z,28.60
2018-11-14T00:59:18.803Z,28.13
2018-11-14T01:01:49.788Z,28.17
2018-11-14T01:04:21.363Z,26.73
2018-11-14T01:06:52.569Z,27.23
2018-11-14T01:09:23.756Z,26.37
2018-11-14T01:11:54.952Z,26.40
2018-11-14T01:14:26.144Z,25.10
2018-11-14T01:16:57.351Z,24.40
2018-11-14T01:19:28.579Z,25.37
2018-11-14T01:21:59.918Z,26.17
2018-11-14T01:24:31.131Z,26.07
2018-11-14T01:27:02.529Z,27.50
2018-11-14T01:29:33.700Z,26.63
2018-11-14T01:32:04.848Z,26.27
2018-11-14T01:34:35.883Z,27.10
2018-11-14T01:37:07.348Z,27.37
2018-11-14T01:39:38.448Z,27.57
2018-11-14T01:42:09.655Z,28.83
2018-11-14T01:44:40.836Z,29.17
2018-11-14T01:47:12.127Z,29.77
2018-11-14T01:49:43.474Z,28.97
2018-11-14T01:52:14.795Z,29.37
2018-11-14T01:54:46.292Z,31.10
2018-11-14T01:57:17.376Z,29.87
2018-11-14T01:59:48.381Z,30.50
2018-11-14T02:02:19.595Z,29.03
2018-11-14T02:04:50.881Z,27.77
2018-11-14T02:07:22.523Z,28.70
2018-11-14T02:09:53.559Z,28.47
2018-11-14T02:12:24.743Z,27.97
2018-11-14T02:14:55.728Z,27.40
2018-11-14T02:17:27.040Z,29.53
2018-11-14T02:19:58.191Z,29.57
2018-11-14T02:22:29.504Z,29.20
2018-11-14T02:25:00.699Z,28.93
2018-11-14T02:27:31.893Z,30.27
2018-11-14T02:30:03.623Z,30.23
2018-11-14T02:32:34.676Z,29.47
2018-11-14T02:35:06.576Z,29.70
2018-11-14T02:37:37.855Z,30.17
2018-11-14T02:40:13.179Z,29.67
2018-11-14T02:42:44.351Z,28.33
2018-11-14T02:45:15.875Z,28.47
2018-11-14T02:47:47.131Z,28.93
2018-11-14T02:50:18.987Z,27.97
2018-11-14T02:52:50.589Z,28.63
2018-11-14T02:55:21.682Z,29.00
2018-11-14T02:57:52.877Z,29.20
2018-11-14T03:00:24.076Z,30.17
2018-11-14T03:02:55.263Z,30.10
2018-11-14T03:05:26.478Z,29.70
2018-11-14T03:07:57.637Z,30.17
2018-11-14T03:10:28.695Z,29.40
2018-11-14T03:13:00.030Z,30.30
2018-11-14T03:15:31.031Z,28.70
2018-11-14T03:18:02.223Z,29.20
2018-11-14T03:20:33.468Z,29.43
2018-11-14T03:23:04.817Z,28.97
2018-11-14T03:25:35.984Z,27.63
2018-11-14T03:28:07.302Z,27.90
2018-11-14T03:30:38.576Z,29.77
2018-11-14T03:33:09.710Z,28.83
2018-11-14T03:35:45.716Z,27.37
2018-11-14T03:38:16.867Z,26.00
2018-11-14T03:40:48.075Z,27.00
2018-11-14T03:43:19.539Z,26.53
2018-11-14T03:45:50.653Z,25.57
2018-11-14T03:48:21.656Z,26.97
2018-11-14T03:50:52.867Z,27.70
2018-11-14T03:53:24.011Z,26.50
2018-11-14T03:55:55.271Z,27.87
2018-11-14T03:58:26.956Z,28.67
2018-11-14T04:00:58.196Z,27.60
2018-11-14T04:03:29.379Z,27.77
2018-11-14T04:06:00.568Z,27.77
2018-11-14T04:08:31.949Z,27.23
2018-11-14T04:11:02.964Z,26.13
2018-11-14T04:13:34.387Z,25.40
2018-11-14T04:16:05.819Z,25.50
2018-11-14T04:18:37.213Z,25.50
2018-11-14T04:21:08.747Z,25.77
2018-11-14T04:23:43.487Z,26.27
2018-11-14T04:26:14.432Z,25.30
2018-11-14T04:28:45.676Z,25.90
2018-11-14T04:31:17.051Z,24.07
2018-11-14T04:33:48.191Z,23.30
2018-11-14T04:36:19.389Z,23.67
2018-11-14T04:38:50.586Z,23.47
2018-11-14T04:41:21.786Z,23.43
2018-11-14T04:43:52.976Z,23.93
2018-11-14T04:46:23.988Z,23.07
2018-11-14T04:48:55.444Z,22.97
2018-11-14T04:51:26.767Z,22.67
2018-11-14T04:53:57.741Z,23.07
2018-11-14T04:56:29.411Z,22.50
2018-11-14T04:59:00.997Z,22.77
2018-11-14T05:01:32.170Z,21.63
2018-11-14T05:04:03.487Z,22.30
2018-11-14T05:06:34.676Z,21.70
2018-11-14T05:09:07.574Z,21.80
2018-11-14T05:11:39.192Z,21.63
2018-11-14T05:14:10.844Z,20.83
2018-11-14T05:16:41.998Z,20.43
2018-11-14T05:19:13.183Z,19.40
2018-11-14T05:21:44.387Z,19.90
2018-11-14T05:24:15.591Z,22.20
2018-11-14T05:26:47.000Z,23.13
2018-11-14T05:29:18.156Z,22.33
2018-11-14T05:31:49.370Z,22.37
2018-11-14T05:34:20.535Z,22.37
2018-11-14T05:36:51.727Z,22.40
2018-11-14T05:39:22.786Z,21.60
2018-11-14T05:41:53.914Z,21.80
2018-11-14T05:44:25.174Z,22.07
2018-11-14T05:46:56.492Z,21.27
2018-11-14T05:49:27.499Z,21.80
2018-11-14T05:51:58.483Z,21.43
2018-11-14T05:54:29.674Z,22.43
2018-11-14T05:57:00.876Z,20.17
2018-11-14T05:59:32.071Z,21.20
2018-11-14T06:02:03.533Z,20.47
2018-11-14T06:04:34.872Z,20.87
2018-11-14T06:07:05.990Z,20.50
2018-11-14T06:09:37.068Z,20.60
2018-11-14T06:12:07.927Z,20.97
2018-11-14T06:14:40.087Z,22.07
2018-11-14T06:17:11.275Z,24.70
2018-11-14T06:19:42.585Z,24.87
2018-11-14T06:22:13.587Z,23.50
2018-11-14T06:24:44.767Z,23.17
2018-11-14T06:27:15.961Z,23.83
2018-11-14T06:29:47.505Z,23.40
2018-11-14T06:32:19.365Z,23.87
2018-11-14T06:34:50.483Z,24.57
2018-11-14T06:37:22.003Z,23.50
2018-11-14T06:39:53.300Z,21.47
2018-11-14T06:42:24.491Z,21.23
2018-11-14T06:44:55.488Z,19.07
2018-11-14T06:47:27.219Z,19.77
2018-11-14T06:49:58.499Z,20.37
2018-11-14T06:52:29.472Z,19.63
2018-11-14T06:55:01.334Z,20.10
2018-11-14T06:57:32.432Z,20.80
2018-11-14T07:00:03.643Z,20.10
2018-11-14T07:02:38.336Z,19.47
2018-11-14T07:05:07.050Z,20.07
2018-11-14T07:07:38.212Z,19.27
2018-11-14T07:10:12.612Z,19.50
2018-11-14T07:12:43.795Z,20.80
2018-11-14T07:15:18.992Z,23.57
2018-11-14T07:17:51.564Z,22.00
2018-11-14T07:20:26.727Z,20.90
2018-11-14T07:22:58.218Z,22.73
2018-11-14T07:25:29.352Z,21.73
2018-11-14T07:28:00.492Z,21.37
2018-11-14T07:30:32.032Z,22.40
2018-11-14T07:33:06.970Z,21.13
2018-11-14T07:35:38.063Z,21.00
2018-11-14T07:41:26.975Z,21.33
2018-11-14T07:43:58.040Z,22.60
2018-11-14T07:46:30.498Z,22.40
2018-11-14T07:49:02.201Z,22.53
2018-11-14T07:51:33.402Z,23.00
2018-11-14T07:54:04.616Z,24.93
2018-11-14T07:56:36.207Z,24.17
2018-11-14T07:59:07.992Z,24.43
2018-11-14T08:01:39.331Z,22.63
2018-11-14T08:04:10.467Z,22.40
2018-11-14T08:06:41.951Z,22.40
2018-11-14T08:09:13.040Z,21.67
2018-11-14T08:11:44.241Z,22.23
2018-11-14T08:14:15.457Z,23.03
2018-11-14T08:16:46.635Z,21.53
2018-11-14T08:19:18.248Z,23.23
2018-11-14T08:21:49.383Z,23.53
2018-11-14T08:24:20.579Z,24.20
2018-11-14T08:26:51.585Z,24.97
2018-11-14T08:29:22.584Z,24.93
2018-11-14T08:31:54.593Z,24.53
2018-11-14T08:34:25.544Z,23.33
2018-11-14T08:36:57.566Z,22.53
2018-11-14T08:39:28.520Z,23.17
2018-11-14T08:41:59.527Z,22.53
2018-11-14T08:44:31.215Z,23.13
2018-11-14T08:47:02.800Z,22.07
2018-11-14T08:49:33.928Z,22.57
2018-11-14T08:52:05.177Z,20.97
2018-11-14T08:54:37.153Z,20.63
2018-11-14T08:57:08.280Z,20.90
2018-11-14T08:59:39.239Z,21.63
2018-11-14T09:02:10.291Z,20.73
2018-11-14T09:04:41.647Z,20.07
2018-11-14T09:07:19.599Z,20.90
2018-11-14T09:09:50.730Z,20.40
2018-11-14T09:12:21.751Z,19.20
2018-11-14T09:14:52.691Z,19.10
2018-11-14T09:17:23.871Z,18.27
2018-11-14T09:19:54.899Z,17.67
2018-11-14T09:22:26.111Z,16.10
2018-11-14T09:24:58.002Z,16.30
2018-11-14T09:27:29.367Z,16.53
2018-11-14T09:30:01.308Z,15.60
2018-11-14T09:32:32.595Z,16.13
2018-11-14T09:35:03.840Z,16.83
2018-11-14T09:37:34.979Z,17.40
2018-11-14T09:40:07.439Z,16.20
2018-11-14T09:42:39.175Z,15.97
2018-11-14T09:45:14.816Z,16.70
2018-11-14T09:47:45.896Z,17.13
2018-11-14T09:50:19.429Z,16.47
2018-11-14T09:52:52.060Z,17.07
2018-11-14T09:55:23.211Z,15.47
2018-11-14T09:57:54.366Z,15.43
2018-11-14T10:00:27.019Z,14.80
2018-11-14T10:03:04.618Z,14.03
2018-11-14T10:05:35.870Z,12.90
2018-11-14T10:08:07.042Z,14.23
2018-11-14T10:10:38.436Z,12.90
2018-11-14T10:13:10.166Z,11.43
2018-11-14T10:15:41.422Z,11.97
2018-11-14T10:18:12.751Z,12.00
2018-11-14T10:20:43.992Z,12.13
2018-11-14T10:23:15.316Z,11.80
2018-11-14T10:25:46.352Z,12.20
2018-11-14T10:28:17.760Z,11.60
2018-11-14T10:30:48.978Z,10.93
2018-11-14T10:33:20.285Z,11.37
2018-11-14T10:35:51.468Z,10.87
2018-11-14T10:38:22.683Z,10.30
2018-11-14T10:40:54.057Z,9.93
2018-11-14T10:43:25.059Z,10.30
2018-11-14T10:45:56.255Z,10.67
2018-11-14T10:48:27.240Z,9.37
2018-11-14T10:50:58.834Z,10.00
2018-11-14T10:53:30.636Z,9.87
2018-11-14T10:56:01.822Z,9.83
2018-11-14T10:58:35.880Z,10.00
2018-11-14T11:01:13.804Z,9.90
2018-11-14T11:03:50.677Z,10.43
2018-11-14T11:06:38.251Z,9.73
2018-11-14T11:09:17.202Z,12.83
2018-11-14T11:11:53.944Z,11.80
2018-11-14T11:14:35.802Z,10.37
2018-11-14T11:17:13.610Z,10.40
2018-11-14T11:19:46.621Z,10.20
2018-11-14T11:22:19.517Z,10.20
2018-11-14T11:24:52.299Z,10.93
2018-11-14T11:27:25.312Z,9.80
2018-11-14T11:29:58.855Z,9.13
2018-11-14T11:32:31.619Z,9.43
2018-11-14T11:35:04.600Z,9.70
2018-11-14T11:37:37.221Z,9.97
2018-11-14T11:40:10.680Z,9.33
2018-11-14T11:42:43.970Z,9.73
2018-11-14T11:45:16.899Z,9.27
2018-11-14T11:47:48.606Z,9.97
2018-11-14T11:50:20.771Z,9.37
2018-11-14T11:52:52.663Z,9.30
2018-11-14T11:55:23.768Z,9.63
2018-11-14T11:57:54.969Z,9.67
2018-11-14T12:00:26.159Z,9.50
2018-11-14T12:02:57.123Z,8.83
2018-11-14T12:05:28.319Z,9.17
2018-11-14T12:07:59.311Z,9.50
2018-11-14T12:10:30.567Z,9.03
2018-11-14T12:13:01.701Z,9.27
2018-11-14T12:15:32.931Z,9.20
2018-11-14T12:18:04.312Z,9.27
2018-11-14T12:20:35.376Z,9.13
2018-11-14T12:23:06.983Z,8.83
2018-11-14T12:25:38.742Z,9.50
2018-11-14T12:28:09.868Z,9.07
2018-11-14T12:30:41.152Z,8.80
2018-11-14T12:33:12.758Z,9.50
2018-11-14T12:35:44.061Z,9.03
2018-11-14T12:38:15.510Z,9.50
2018-11-14T12:40:46.836Z,9.73
2018-11-14T12:43:18.463Z,9.27
2018-11-14T12:45:49.983Z,9.50
2018-11-14T12:48:21.127Z,9.67
2018-11-14T12:50:52.387Z,9.17
2018-11-14T12:53:23.784Z,8.60
2018-11-14T12:55:55.100Z,8.33
2018-11-14T12:58:26.291Z,8.10
2018-11-14T13:00:57.504Z,8.13
2018-11-14T13:03:28.503Z,8.03
2018-11-14T13:05:59.672Z,8.07
2018-11-14T13:08:30.856Z,8.20
2018-11-14T13:11:03.139Z,8.80
2018-11-14T13:13:39.319Z,8.20
2018-11-14T13:16:10.551Z,8.67
2018-11-14T13:18:42.327Z,8.23
2018-11-14T13:21:17.147Z,7.73
2018-11-14T13:23:48.795Z,8.20
2018-11-14T13:26:20.099Z,7.97
2018-11-14T13:28:51.758Z,8.50
2018-11-14T13:31:22.815Z,7.87
2018-11-14T13:33:54.068Z,8.43
2018-11-14T13:36:25.675Z,8.50
2018-11-14T13:38:56.971Z,8.83
2018-11-14T13:41:27.960Z,8.37
2018-11-14T13:43:59.189Z,8.07
2018-11-14T13:46:30.639Z,7.83
2018-11-14T13:49:01.992Z,8.10
2018-11-14T13:51:33.171Z,7.90
2018-11-14T13:54:04.387Z,7.87
2018-11-14T13:56:35.692Z,8.30
2018-11-14T13:59:07.220Z,7.90
2018-11-14T14:01:38.281Z,7.30
2018-11-14T14:04:09.281Z,8.50
2018-11-14T14:06:42.571Z,7.77
2018-11-14T14:09:14.294Z,7.70
2018-11-14T14:11:47.236Z,7.47
2018-11-14T14:14:19.096Z,8.00
2018-11-14T14:16:50.200Z,8.90
2018-11-14T14:19:21.598Z,8.07
2018-11-14T14:21:52.951Z,7.90
2018-11-14T14:24:23.962Z,8.13
2018-11-14T14:26:55.115Z,8.53
2018-11-14T14:29:26.311Z,8.43
2018-11-14T14:31:57.499Z,9.07
2018-11-14T14:34:29.051Z,8.53
2018-11-14T14:37:00.315Z,7.70
2018-11-14T14:39:31.259Z,8.90
2018-11-14T14:42:02.516Z,8.60
2018-11-14T14:44:33.645Z,8.90
2018-11-14T14:47:04.709Z,8.00
2018-11-14T14:49:36.040Z,8.30
2018-11-14T14:52:07.520Z,8.20
2018-11-14T14:54:39.046Z,9.00
2018-11-14T14:57:10.895Z,8.17
2018-11-14T14:59:42.230Z,8.30
2018-11-14T15:02:13.379Z,8.50
2018-11-14T15:04:44.391Z,8.40
2018-11-14T15:07:15.563Z,8.60
2018-11-14T15:09:46.753Z,9.17
2018-11-14T15:12:17.756Z,8.97
2018-11-14T15:14:48.752Z,7.83
2018-11-14T15:17:19.940Z,8.00
2018-11-14T15:19:50.940Z,8.20
2018-11-14T15:22:22.936Z,8.43
2018-11-14T15:24:53.944Z,7.67
2018-11-14T15:27:25.084Z,8.03
2018-11-14T15:29:56.280Z,7.90
2018-11-14T15:32:27.463Z,8.30
2018-11-14T15:34:59.011Z,8.20
2018-11-14T15:37:30.253Z,8.33
2018-11-14T15:40:01.288Z,8.40
2018-11-14T15:42:32.457Z,8.10
2018-11-14T15:45:03.479Z,7.97
2018-11-14T15:47:34.787Z,8.77
2018-11-14T15:50:07.989Z,8.13
2018-11-14T15:52:39.087Z,7.80
2018-11-14T15:55:12.432Z,7.73
2018-11-14T15:57:43.615Z,8.73
2018-11-14T16:00:18.969Z,8.00
2018-11-14T16:02:50.244Z,8.20
2018-11-14T16:05:22.616Z,8.10
2018-11-14T16:07:54.855Z,8.07
2018-11-14T16:10:27.092Z,7.97
2018-11-14T16:12:58.348Z,8.00
2018-11-14T16:15:32.587Z,7.87
2018-11-14T16:18:03.962Z,7.97
2018-11-14T16:20:35.256Z,8.43
2018-11-14T16:23:07.103Z,7.90
2018-11-14T16:25:38.486Z,8.37
2018-11-14T16:28:09.921Z,8.03
2018-11-14T16:30:41.213Z,8.60
2018-11-14T16:33:12.287Z,8.47
2018-11-14T16:35:43.592Z,10.47
2018-11-14T16:38:14.858Z,12.13
2018-11-14T16:40:45.991Z,9.37
2018-11-14T16:43:17.159Z,8.97
2018-11-14T16:45:48.661Z,9.07
2018-11-14T16:48:19.747Z,10.63
2018-11-14T16:50:50.943Z,11.33
2018-11-14T16:53:22.123Z,11.37
2018-11-14T16:55:53.368Z,10.20
2018-11-14T16:58:24.831Z,9.93
2018-11-14T17:00:55.945Z,10.23
2018-11-14T17:03:27.662Z,10.90
2018-11-14T17:05:59.195Z,11.30
2018-11-14T17:08:30.475Z,15.23
2018-11-14T17:11:01.468Z,11.90
2018-11-14T17:13:32.460Z,10.27
2018-11-14T17:16:04.337Z,11.07
2018-11-14T17:18:35.628Z,10.20
2018-11-14T17:21:07.255Z,10.57
2018-11-14T17:23:38.403Z,11.40
2018-11-14T17:26:10.320Z,10.83
2018-11-14T17:28:41.372Z,10.43
2018-11-14T17:31:12.573Z,9.77
2018-11-14T17:33:43.976Z,10.20
2018-11-14T17:36:15.424Z,9.23
2018-11-14T17:38:46.979Z,9.93
2018-11-14T17:41:18.657Z,14.17
2018-11-14T17:43:49.720Z,10.30
2018-11-14T17:46:20.899Z,10.17
2018-11-14T17:48:52.100Z,10.40
2018-11-14T17:51:23.279Z,10.63
2018-11-14T17:53:54.280Z,10.20
2018-11-14T17:56:27.238Z,10.77
2018-11-14T17:58:59.456Z,10.43
2018-11-14T18:01:31.107Z,10.90
2018-11-14T18:04:02.417Z,10.43
2018-11-14T18:06:33.883Z,11.10
2018-11-14T18:09:07.275Z,10.77
2018-11-14T18:11:39.311Z,10.83
2018-11-14T18:14:11.051Z,10.60
2018-11-14T18:16:42.116Z,11.13
2018-11-14T18:19:13.772Z,11.50
2018-11-14T18:21:48.493Z,10.83
2018-11-14T18:24:19.787Z,10.53
2018-11-14T18:26:52.071Z,10.73
2018-11-14T18:29:24.014Z,11.87
2018-11-14T18:31:55.143Z,11.50
2018-11-14T18:34:26.812Z,10.80
2018-11-14T18:36:58.399Z,13.77
2018-11-14T18:39:29.501Z,12.67
2018-11-14T18:42:00.526Z,12.97
2018-11-14T18:44:31.680Z,11.80
2018-11-14T18:47:02.948Z,11.70
2018-11-14T18:49:34.260Z,11.83
2018-11-14T18:52:05.399Z,12.17
2018-11-14T18:54:36.651Z,12.37
2018-11-14T18:57:08.365Z,13.03
2018-11-14T18:59:40.612Z,16.40
2018-11-14T19:02:11.792Z,15.93
2018-11-14T19:04:42.984Z,13.70
2018-11-14T19:07:14.515Z,17.03
2018-11-14T19:09:45.842Z,14.10
2018-11-14T19:12:17.502Z,12.27
2018-11-14T19:14:48.742Z,11.73
2018-11-14T19:17:20.211Z,12.63
2018-11-14T19:19:51.644Z,12.20
2018-11-14T19:22:22.720Z,11.70
2018-11-14T19:24:54.143Z,11.57
2018-11-14T19:27:26.264Z,11.83
2018-11-14T19:29:57.471Z,12.07
2018-11-14T19:32:29.252Z,12.30
2018-11-14T19:35:00.448Z,12.87
2018-11-14T19:37:31.972Z,11.90
2018-11-14T19:40:03.039Z,13.07
2018-11-14T19:42:34.205Z,16.57
2018-11-14T19:45:06.220Z,20.33
2018-11-14T19:47:38.127Z,17.83
2018-11-14T19:50:13.147Z,13.67
2018-11-14T19:52:46.355Z,15.70
2018-11-14T19:55:18.644Z,16.90
2018-11-14T19:57:52.906Z,18.37
2018-11-14T20:00:27.163Z,17.50
2018-11-14T20:02:58.603Z,20.80
2018-11-14T20:05:29.915Z,14.30
2018-11-14T20:08:01.088Z,13.33
2018-11-14T20:10:33.312Z,15.23
2018-11-14T20:13:04.475Z,15.93
2018-11-14T20:15:36.755Z,15.37
2018-11-14T20:18:09.987Z,15.80
2018-11-14T20:20:41.239Z,16.30
2018-11-14T20:23:12.556Z,17.10
2018-11-14T20:25:43.875Z,16.17
2018-11-14T20:28:15.316Z,14.27
2018-11-14T20:30:47.215Z,15.00
2018-11-14T20:33:18.627Z,14.80
2018-11-14T20:35:50.584Z,14.43
2018-11-14T20:38:25.343Z,15.50
2018-11-14T20:40:56.749Z,14.00
2018-11-14T20:43:28.037Z,13.63
2018-11-14T20:45:59.619Z,13.77
2018-11-14T20:48:31.799Z,14.30
2018-11-14T20:51:02.999Z,14.20
2018-11-14T20:53:34.351Z,13.90
2018-11-14T20:56:05.627Z,14.70
2018-11-14T20:58:36.896Z,15.37
2018-11-14T21:01:08.431Z,15.10
2018-11-14T21:03:39.654Z,14.83
2018-11-14T21:06:10.912Z,15.10
2018-11-14T21:08:41.868Z,15.50
2018-11-14T21:11:13.541Z,15.00
2018-11-14T21:13:45.131Z,15.23
2018-11-14T21:16:16.247Z,14.30
2018-11-14T21:18:47.219Z,16.07
2018-11-14T21:21:18.720Z,15.70
2018-11-14T21:23:49.797Z,15.33
2018-11-14T21:26:21.283Z,15.07
2018-11-14T21:28:52.875Z,15.23
2018-11-14T21:31:24.256Z,16.33
2018-11-14T21:33:55.551Z,16.27
2018-11-14T21:36:26.736Z,16.13
2018-11-14T21:38:57.742Z,14.33
2018-11-14T21:41:29.687Z,14.43
2018-11-14T21:44:00.923Z,14.90
2018-11-14T21:46:32.340Z,14.50
2018-11-14T21:49:03.642Z,14.03
2018-11-14T21:51:34.685Z,15.23
2018-11-14T21:54:06.355Z,14.63
2018-11-14T21:56:37.603Z,14.67
2018-11-14T21:59:08.729Z,14.90
2018-11-14T22:01:39.919Z,15.23
2018-11-14T22:04:10.702Z,14.57
2018-11-14T22:06:41.828Z,14.57
2018-11-14T22:09:13.805Z,14.67
2018-11-14T22:11:45.004Z,14.67
2018-11-14T22:14:16.182Z,13.70
2018-11-14T22:16:47.207Z,14.47
2018-11-14T22:19:18.192Z,13.57
2018-11-14T22:21:49.375Z,14.53
2018-11-14T22:24:20.565Z,14.00
2018-11-14T22:26:51.743Z,13.53
2018-11-14T22:29:23.647Z,14.83
2018-11-14T22:31:54.775Z,16.90
2018-11-14T22:34:25.734Z,16.17
2018-11-14T22:36:56.719Z,15.80
2018-11-14T22:39:27.911Z,15.67
2018-11-14T22:41:59.107Z,16.10
2018-11-14T22:44:30.299Z,19.57
2018-11-14T22:47:01.479Z,15.37
2018-11-14T22:49:32.692Z,17.70
2018-11-14T22:52:04.132Z,15.27
2018-11-14T22:54:35.255Z,15.90
2018-11-14T22:57:06.322Z,23.97
2018-11-14T22:59:37.475Z,21.13
2018-11-14T23:02:08.945Z,15.10
2018-11-14T23:04:40.220Z,20.43
2018-11-14T23:07:11.231Z,15.50
2018-11-14T23:09:42.453Z,17.10
2018-11-14T23:12:13.591Z,16.50
2018-11-14T23:14:45.215Z,26.20
2018-11-14T23:17:16.371Z,19.33
2018-11-14T23:19:47.380Z,18.93
2018-11-14T23:22:18.404Z,20.80
2018-11-14T23:24:49.565Z,20.70
2018-11-14T23:27:20.565Z,17.80
2018-11-14T23:29:51.731Z,18.20
2018-11-14T23:32:22.983Z,15.37
2018-11-14T23:34:58.827Z,15.23
2018-11-14T23:37:30.057Z,15.73
2018-11-14T23:40:01.257Z,17.53
2018-11-14T23:42:32.427Z,18.37
2018-11-14T23:45:03.648Z,20.03
2018-11-14T23:47:35.111Z,16.90
2018-11-14T23:50:09.207Z,16.00
2018-11-14T23:52:41.425Z,16.17
2018-11-14T23:55:12.555Z,16.30
2018-11-14T23:57:43.761Z,15.03
